createdAt,value
2018-09-13T00:01:02.894Z,66.37
2018-09-13T00:03:30.776Z,66.68
2018-09-13T00:05:58.264Z,66.10
2018-09-13T00:08:26.510Z,66.60
2018-09-13T00:10:53.988Z,67.02
2018-09-13T00:13:21.935Z,67.03
2018-09-13T00:15:49.421Z,67.45
2018-09-13T00:18:16.875Z,66.57
2018-09-13T00:20:44.327Z,66.83
2018-09-13T00:23:12.276Z,66.84
2018-09-13T00:25:39.748Z,67.24
2018-09-13T00:28:07.242Z,67.00
2018-09-13T00:30:34.715Z,66.75
2018-09-13T00:33:02.523Z,67.41
2018-09-13T00:35:31.004Z,67.66
2018-09-13T00:37:58.491Z,67.65
2018-09-13T00:40:26.088Z,67.28
2018-09-13T00:42:53.969Z,68.06
2018-09-13T00:45:21.492Z,67.20
2018-09-13T00:47:48.990Z,67.87
2018-09-13T00:50:16.498Z,67.71
2018-09-13T00:52:44.448Z,67.51
2018-09-13T00:55:11.961Z,68.44
2018-09-13T00:57:39.608Z,68.28
2018-09-13T01:00:07.684Z,67.72
2018-09-13T01:02:35.236Z,68.12
2018-09-13T01:05:02.744Z,68.45
2018-09-13T01:07:30.323Z,68.12
2018-09-13T01:09:58.229Z,67.87
2018-09-13T01:12:25.867Z,68.32
2018-09-13T01:14:53.383Z,68.00
2018-09-13T01:17:21.361Z,68.73
2018-09-13T01:19:49.411Z,68.03
2018-09-13T01:22:17.195Z,68.08
2018-09-13T01:24:45.295Z,68.50
2018-09-13T01:27:12.768Z,68.19
2018-09-13T01:29:40.304Z,68.31
2018-09-13T01:32:07.784Z,68.78
2018-09-13T01:34:35.602Z,68.17
2018-09-13T01:37:03.099Z,68.58
2018-09-13T01:39:30.583Z,68.75
2018-09-13T01:41:58.046Z,68.90
2018-09-13T01:44:25.791Z,68.41
2018-09-13T01:46:53.270Z,68.83
2018-09-13T01:49:21.751Z,68.35
2018-09-13T01:51:49.203Z,68.64
2018-09-13T01:54:17.011Z,68.70
2018-09-13T01:56:44.483Z,68.53
2018-09-13T01:59:11.934Z,68.46
2018-09-13T02:01:39.843Z,68.70
2018-09-13T02:04:07.304Z,69.01
2018-09-13T02:06:34.761Z,68.89
2018-09-13T02:09:02.275Z,68.82
2018-09-13T02:11:30.088Z,68.47
2018-09-13T02:13:57.541Z,68.37
2018-09-13T02:16:24.994Z,68.79
2018-09-13T02:18:52.556Z,69.15
2018-09-13T02:21:20.324Z,68.78
2018-09-13T02:23:47.776Z,68.25
2018-09-13T02:26:15.242Z,68.80
2018-09-13T02:28:43.199Z,68.94
2018-09-13T02:31:10.670Z,68.66
2018-09-13T02:33:38.224Z,69.14
2018-09-13T02:36:05.758Z,69.23
2018-09-13T02:38:33.699Z,68.66
2018-09-13T02:41:01.298Z,68.55
2018-09-13T02:43:28.760Z,68.69
2018-09-13T02:45:56.257Z,68.66
2018-09-13T02:48:23.730Z,68.37
2018-09-13T02:50:51.198Z,68.29
2018-09-13T02:53:19.309Z,69.04
2018-09-13T02:55:46.786Z,69.01
2018-09-13T02:58:14.318Z,68.26
2018-09-13T03:00:42.239Z,69.05
2018-09-13T03:03:09.746Z,68.50
2018-09-13T03:05:37.237Z,68.60
2018-09-13T03:08:04.721Z,68.70
2018-09-13T03:10:32.557Z,68.82
2018-09-13T03:13:00.041Z,68.93
2018-09-13T03:15:27.524Z,69.19
2018-09-13T03:17:55.453Z,68.53
2018-09-13T03:20:22.927Z,68.80
2018-09-13T03:22:50.498Z,69.31
2018-09-13T03:25:17.979Z,68.51
2018-09-13T03:27:45.973Z,68.58
2018-09-13T03:30:15.024Z,68.98
2018-09-13T03:32:42.511Z,68.74
2018-09-13T03:35:10.439Z,69.23
2018-09-13T03:37:37.907Z,69.06
2018-09-13T03:40:05.370Z,69.08
2018-09-13T03:42:32.840Z,69.15
2018-09-13T03:45:00.669Z,69.72
2018-09-13T03:47:28.366Z,69.44
2018-09-13T03:49:55.884Z,69.33
2018-09-13T03:52:23.956Z,69.88
2018-09-13T03:54:51.464Z,69.32
2018-09-13T03:57:18.958Z,69.52
2018-09-13T03:59:46.429Z,69.63
2018-09-13T04:02:14.272Z,69.32
2018-09-13T04:04:41.791Z,69.64
2018-09-13T04:07:09.307Z,69.86
2018-09-13T04:09:36.774Z,69.80
2018-09-13T04:12:04.639Z,69.29
2018-09-13T04:14:32.159Z,69.56
2018-09-13T04:16:59.811Z,69.64
2018-09-13T04:19:43.962Z,69.36
2018-09-13T04:22:12.418Z,69.76
2018-09-13T04:24:40.333Z,69.60
2018-09-13T04:27:07.844Z,69.97
2018-09-13T04:29:35.375Z,69.29
2018-09-13T04:32:02.994Z,69.61
2018-09-13T04:34:30.902Z,69.59
2018-09-13T04:36:58.371Z,69.83
2018-09-13T04:39:25.900Z,69.76
2018-09-13T04:41:53.864Z,69.45
2018-09-13T04:44:21.318Z,69.35
2018-09-13T04:46:48.805Z,69.88
2018-09-13T04:49:16.909Z,69.88
2018-09-13T04:51:44.440Z,70.12
2018-09-13T04:54:12.002Z,69.71
2018-09-13T04:56:39.936Z,69.66
2018-09-13T04:59:07.774Z,69.57
2018-09-13T05:01:35.351Z,70.17
2018-09-13T05:04:04.238Z,69.42
2018-09-13T05:06:31.760Z,69.84
2018-09-13T05:08:59.271Z,70.29
2018-09-13T05:11:27.114Z,69.70
2018-09-13T05:13:54.598Z,70.34
2018-09-13T05:16:23.027Z,70.03
2018-09-13T05:18:50.982Z,70.04
2018-09-13T05:21:18.520Z,70.33
2018-09-13T05:23:45.978Z,70.62
2018-09-13T05:26:14.598Z,70.29
2018-09-13T05:28:42.077Z,70.00
2018-09-13T05:31:09.574Z,70.32
2018-09-13T05:33:37.517Z,69.80
2018-09-13T05:36:04.987Z,70.26
2018-09-13T05:38:32.448Z,70.08
2018-09-13T05:41:00.456Z,70.41
2018-09-13T05:43:27.918Z,70.17
2018-09-13T05:45:55.438Z,70.43
2018-09-13T05:48:23.628Z,70.23
2018-09-13T05:50:51.169Z,70.67
2018-09-13T05:53:19.048Z,70.69
2018-09-13T05:55:46.560Z,70.63
2018-09-13T05:58:14.145Z,70.33
2018-09-13T06:00:42.167Z,70.12
2018-09-13T06:03:09.728Z,70.06
2018-09-13T06:05:40.125Z,71.00
2018-09-13T06:08:09.514Z,70.17
2018-09-13T06:10:37.260Z,70.14
2018-09-13T06:13:04.878Z,70.51
2018-09-13T06:15:32.710Z,70.74
2018-09-13T06:18:00.254Z,70.95
2018-09-13T06:20:28.917Z,70.49
2018-09-13T06:22:56.885Z,70.96
2018-09-13T06:25:26.273Z,70.38
2018-09-13T06:27:53.761Z,70.59
2018-09-13T06:30:21.658Z,71.16
2018-09-13T06:32:49.238Z,70.32
2018-09-13T06:35:16.782Z,70.90
2018-09-13T06:37:45.407Z,70.29
2018-09-13T06:40:13.510Z,70.79
2018-09-13T06:42:41.067Z,70.47
2018-09-13T06:45:10.319Z,71.10
2018-09-13T06:47:37.851Z,71.16
2018-09-13T06:50:05.370Z,70.61
2018-09-13T06:52:33.283Z,71.28
2018-09-13T06:55:00.790Z,71.05
2018-09-13T06:57:28.426Z,70.71
2018-09-13T06:59:57.271Z,70.49
2018-09-13T07:02:24.812Z,71.29
2018-09-13T07:04:53.037Z,70.34
2018-09-13T07:07:20.978Z,71.08
2018-09-13T07:09:48.485Z,70.47
2018-09-13T07:12:15.998Z,70.83
2018-09-13T07:14:43.998Z,70.36
2018-09-13T07:17:11.499Z,70.39
2018-09-13T07:19:39.646Z,70.36
2018-09-13T07:22:07.629Z,70.80
2018-09-13T07:24:36.033Z,70.45
2018-09-13T07:27:04.217Z,70.17
2018-09-13T07:29:32.076Z,70.34
2018-09-13T07:31:59.636Z,70.16
2018-09-13T07:34:27.691Z,70.16
2018-09-13T07:36:55.687Z,70.12
2018-09-13T07:39:23.667Z,70.20
2018-09-13T07:41:56.439Z,70.08
2018-09-13T07:44:25.549Z,70.41
2018-09-13T07:46:53.134Z,70.25
2018-09-13T07:49:20.746Z,70.18
2018-09-13T07:51:48.614Z,70.28
2018-09-13T07:54:16.150Z,70.18
2018-09-13T07:56:43.716Z,70.48
2018-09-13T07:59:11.615Z,70.28
2018-09-13T08:01:39.106Z,70.40
2018-09-13T08:04:06.644Z,69.65
2018-09-13T08:06:34.487Z,70.18
2018-09-13T08:09:02.281Z,69.96
2018-09-13T08:11:29.952Z,70.19
2018-09-13T08:13:58.475Z,70.01
2018-09-13T08:16:26.092Z,70.25
2018-09-13T08:18:53.672Z,70.07
2018-09-13T08:21:22.231Z,69.91
2018-09-13T08:23:49.758Z,70.43
2018-09-13T08:26:19.001Z,70.63
2018-09-13T08:28:47.775Z,70.69
2018-09-13T08:31:15.312Z,70.21
2018-09-13T08:33:43.028Z,70.39
2018-09-13T08:36:11.540Z,69.78
2018-09-13T08:38:39.106Z,69.74
2018-09-13T08:41:07.424Z,70.63
2018-09-13T08:43:35.383Z,70.35
2018-09-13T08:46:03.783Z,70.27
2018-09-13T08:48:31.381Z,69.68
2018-09-13T08:50:59.238Z,69.65
2018-09-13T08:53:27.435Z,70.34
2018-09-13T08:55:55.077Z,69.93
2018-09-13T08:58:23.589Z,69.80
2018-09-13T09:00:51.558Z,69.39
2018-09-13T09:03:19.145Z,70.18
2018-09-13T09:05:47.993Z,69.38
2018-09-13T09:08:15.552Z,70.00
2018-09-13T09:10:45.238Z,70.30
2018-09-13T09:13:15.139Z,70.35
2018-09-13T09:15:46.835Z,70.16
2018-09-13T09:18:14.594Z,70.15
2018-09-13T09:20:42.438Z,70.08
2018-09-13T09:23:09.931Z,70.08
2018-09-13T09:25:37.439Z,69.93
2018-09-13T09:28:05.358Z,69.91
2018-09-13T09:30:32.921Z,68.98
2018-09-13T09:33:00.467Z,68.71
2018-09-13T09:35:28.486Z,68.44
2018-09-13T09:37:56.810Z,68.66
2018-09-13T09:40:24.367Z,69.17
2018-09-13T09:42:52.340Z,68.71
2018-09-13T09:45:19.894Z,68.77
2018-09-13T09:47:47.394Z,69.39
2018-09-13T09:50:14.967Z,69.28
2018-09-13T09:52:43.124Z,68.61
2018-09-13T09:55:11.690Z,68.50
2018-09-13T09:57:39.338Z,68.86
2018-09-13T10:00:07.916Z,69.33
2018-09-13T10:02:35.948Z,69.12
2018-09-13T10:05:03.515Z,68.84
2018-09-13T10:07:31.955Z,68.74
2018-09-13T10:09:59.971Z,68.27
2018-09-13T10:12:27.622Z,68.60
2018-09-13T10:15:00.288Z,68.31
2018-09-13T10:17:33.348Z,68.35
2018-09-13T10:20:05.880Z,68.67
2018-09-13T10:22:38.589Z,68.36
2018-09-13T10:25:11.526Z,68.39
2018-09-13T10:27:44.911Z,67.62
2018-09-13T10:30:17.477Z,68.75
2018-09-13T10:32:50.483Z,68.19
2018-09-13T10:35:23.194Z,69.00
2018-09-13T10:37:56.231Z,68.43
2018-09-13T10:40:28.933Z,68.15
2018-09-13T10:43:01.716Z,68.23
2018-09-13T10:45:34.752Z,68.65
2018-09-13T10:48:07.532Z,68.58
2018-09-13T10:50:44.082Z,68.66
2018-09-13T10:53:17.067Z,68.44
2018-09-13T10:55:44.710Z,68.96
2018-09-13T10:58:12.253Z,68.66
2018-09-13T11:00:40.140Z,69.70
2018-09-13T11:03:08.324Z,68.94
2018-09-13T11:05:35.949Z,69.32
2018-09-13T11:08:03.876Z,69.44
2018-09-13T11:10:31.512Z,69.73
2018-09-13T11:13:03.578Z,69.82
2018-09-13T11:15:35.275Z,69.68
2018-09-13T11:18:02.909Z,68.96
2018-09-13T11:20:30.676Z,68.78
2018-09-13T11:22:58.776Z,69.00
2018-09-13T11:25:26.549Z,68.33
2018-09-13T11:27:54.674Z,68.19
2018-09-13T11:30:22.715Z,68.58
2018-09-13T11:32:51.517Z,68.23
2018-09-13T11:35:19.134Z,68.29
2018-09-13T11:37:47.085Z,68.98
2018-09-13T11:40:14.776Z,68.19
2018-09-13T11:42:42.779Z,68.44
2018-09-13T11:45:10.915Z,68.58
2018-09-13T11:47:38.690Z,68.68
2018-09-13T11:50:06.418Z,68.21
2018-09-13T11:52:35.009Z,67.37
2018-09-13T11:55:02.704Z,67.10
2018-09-13T11:57:30.286Z,67.34
2018-09-13T11:59:58.175Z,66.56
2018-09-13T12:02:26.771Z,66.16
2018-09-13T12:04:54.348Z,66.75
2018-09-13T12:07:22.256Z,67.10
2018-09-13T12:09:49.787Z,67.25
2018-09-13T12:12:18.009Z,66.86
2018-09-13T12:14:46.019Z,66.28
2018-09-13T12:17:13.721Z,67.46
2018-09-13T12:19:41.411Z,67.08
2018-09-13T12:22:09.444Z,67.00
2018-09-13T12:24:37.035Z,67.10
2018-09-13T12:27:04.665Z,67.81
2018-09-13T12:29:32.643Z,68.41
2018-09-13T12:32:00.835Z,68.64
2018-09-13T12:34:28.502Z,69.02
2018-09-13T12:36:56.431Z,69.34
2018-09-13T12:39:23.935Z,69.19
2018-09-13T12:41:51.583Z,68.96
2018-09-13T12:44:19.697Z,68.17
2018-09-13T12:46:47.287Z,68.78
2018-09-13T12:49:17.864Z,67.85
2018-09-13T12:51:46.379Z,68.29
2018-09-13T12:54:13.946Z,67.69
2018-09-13T12:56:42.195Z,67.85
2018-09-13T12:59:10.506Z,68.40
2018-09-13T13:01:38.099Z,68.19
2018-09-13T13:04:05.660Z,68.16
2018-09-13T13:06:33.661Z,67.37
2018-09-13T13:09:01.215Z,68.15
2018-09-13T13:11:28.910Z,67.24
2018-09-13T13:13:56.851Z,66.74
2018-09-13T13:16:24.486Z,66.02
2018-09-13T13:18:52.064Z,66.38
2018-09-13T13:21:20.828Z,65.15
2018-09-13T13:23:48.447Z,64.76
2018-09-13T13:26:17.279Z,64.39
2018-09-13T13:28:44.855Z,64.31
2018-09-13T13:31:12.374Z,63.58
2018-09-13T13:33:40.318Z,62.86
2018-09-13T13:36:07.893Z,63.24
2018-09-13T13:38:35.501Z,62.03
2018-09-13T13:41:03.565Z,62.36
2018-09-13T13:43:31.134Z,62.45
2018-09-13T13:45:59.753Z,62.42
2018-09-13T13:48:27.813Z,62.12
2018-09-13T13:50:55.404Z,62.44
2018-09-13T13:53:24.092Z,62.54
2018-09-13T13:55:53.147Z,63.70
2018-09-13T13:58:21.289Z,63.33
2018-09-13T14:00:50.703Z,63.91
2018-09-13T14:03:19.800Z,64.56
2018-09-13T14:05:47.298Z,64.81
2018-09-13T14:08:14.924Z,64.57
2018-09-13T14:10:42.788Z,65.59
2018-09-13T14:13:10.347Z,64.90
2018-09-13T14:15:37.947Z,65.58
2018-09-13T14:18:05.770Z,65.85
2018-09-13T14:20:33.427Z,65.83
2018-09-13T14:23:00.914Z,65.04
2018-09-13T14:25:28.912Z,65.22
2018-09-13T14:27:56.540Z,65.70
2018-09-13T14:30:24.086Z,65.75
2018-09-13T14:32:52.076Z,64.99
2018-09-13T14:35:21.833Z,65.03
2018-09-13T14:37:49.420Z,64.38
2018-09-13T14:40:17.346Z,63.82
2018-09-13T14:42:44.839Z,62.69
2018-09-13T14:45:12.381Z,62.94
2018-09-13T14:47:40.332Z,62.63
2018-09-13T14:50:07.896Z,62.85
2018-09-13T14:52:35.501Z,61.70
2018-09-13T14:55:03.463Z,61.74
2018-09-13T14:57:31.017Z,62.33
2018-09-13T14:59:58.579Z,62.37
2018-09-13T15:02:26.565Z,62.42
2018-09-13T15:04:54.167Z,63.21
2018-09-13T15:07:22.452Z,63.56
2018-09-13T15:09:50.652Z,63.36
2018-09-13T15:12:18.735Z,64.68
2018-09-13T15:14:46.414Z,64.44
2018-09-13T15:17:14.356Z,65.20
2018-09-13T15:19:43.702Z,65.85
2018-09-13T15:22:11.424Z,65.39
2018-09-13T15:24:39.427Z,65.78
2018-09-13T15:27:06.894Z,65.45
2018-09-13T15:29:34.402Z,65.90
2018-09-13T15:32:02.393Z,65.31
2018-09-13T15:34:29.920Z,65.32
2018-09-13T15:36:57.478Z,64.30
2018-09-13T15:39:25.411Z,63.85
2018-09-13T15:41:52.961Z,62.28
2018-09-13T15:44:21.207Z,61.92
2018-09-13T15:46:49.252Z,61.67
2018-09-13T15:49:16.817Z,62.28
2018-09-13T15:51:44.369Z,62.71
2018-09-13T15:54:12.387Z,63.17
2018-09-13T15:56:39.909Z,63.59
2018-09-13T15:59:07.680Z,63.31
2018-09-13T16:01:36.118Z,63.58
2018-09-13T16:04:03.639Z,63.45
2018-09-13T16:06:31.227Z,64.56
2018-09-13T16:08:59.044Z,63.77
2018-09-13T16:11:27.556Z,65.02
2018-09-13T16:13:55.190Z,65.39
2018-09-13T16:16:23.528Z,65.66
2018-09-13T16:18:51.060Z,65.20
2018-09-13T16:21:19.412Z,65.49
2018-09-13T16:23:47.358Z,65.84
2018-09-13T16:26:14.957Z,65.51
2018-09-13T16:28:42.535Z,66.62
2018-09-13T16:31:10.781Z,65.83
2018-09-13T16:33:38.337Z,66.12
2018-09-13T16:36:05.862Z,66.71
2018-09-13T16:38:38.919Z,66.31
2018-09-13T16:41:11.487Z,66.27
2018-09-13T16:43:44.237Z,66.87
2018-09-13T16:46:16.257Z,66.64
2018-09-13T16:48:45.171Z,66.27
2018-09-13T16:51:12.990Z,66.19
2018-09-13T16:53:40.912Z,67.17
2018-09-13T16:56:08.859Z,66.11
2018-09-13T16:58:36.451Z,66.69
2018-09-13T17:01:04.439Z,66.26
2018-09-13T17:03:31.944Z,66.75
2018-09-13T17:05:59.477Z,67.05
2018-09-13T17:08:27.299Z,67.09
2018-09-13T17:10:55.073Z,67.68
2018-09-13T17:13:22.634Z,68.18
2018-09-13T17:15:50.616Z,67.69
2018-09-13T17:18:18.098Z,68.56
2018-09-13T17:20:45.636Z,68.80
2018-09-13T17:23:13.195Z,69.05
2018-09-13T17:25:40.693Z,69.73
2018-09-13T17:28:08.724Z,69.00
2018-09-13T17:30:36.311Z,70.11
2018-09-13T17:33:04.043Z,70.37
2018-09-13T17:35:32.165Z,70.20
2018-09-13T17:38:00.109Z,69.90
2018-09-13T17:40:27.671Z,70.14
2018-09-13T17:42:55.453Z,70.93
2018-09-13T17:45:22.939Z,70.97
2018-09-13T17:47:50.473Z,71.50
2018-09-13T17:50:18.567Z,71.21
2018-09-13T17:52:46.266Z,71.46
2018-09-13T17:55:13.788Z,71.72
2018-09-13T17:57:41.695Z,71.64
2018-09-13T18:00:09.250Z,71.81
2018-09-13T18:02:36.767Z,72.23
2018-09-13T18:05:04.675Z,72.63
2018-09-13T18:07:33.056Z,71.84
2018-09-13T18:10:00.550Z,72.52
2018-09-13T18:12:28.460Z,72.61
2018-09-13T18:14:55.971Z,72.62
2018-09-13T18:17:24.445Z,72.07
2018-09-13T18:19:52.243Z,72.68
2018-09-13T18:22:19.726Z,72.96
2018-09-13T18:24:47.220Z,72.77
2018-09-13T18:27:15.146Z,73.24
2018-09-13T18:29:42.691Z,73.20
2018-09-13T18:32:10.203Z,73.26
2018-09-13T18:34:38.124Z,73.58
2018-09-13T18:37:05.641Z,72.84
2018-09-13T18:39:34.350Z,73.14
2018-09-13T18:42:04.244Z,73.30
2018-09-13T18:44:33.392Z,72.96
2018-09-13T18:47:01.894Z,73.82
2018-09-13T18:49:30.370Z,73.28
2018-09-13T18:51:58.463Z,74.05
2018-09-13T18:54:26.617Z,73.85
2018-09-13T18:57:00.116Z,73.42
2018-09-13T18:59:27.714Z,73.82
2018-09-13T19:01:55.219Z,73.89
2018-09-13T19:04:27.929Z,74.11
2018-09-13T19:06:55.507Z,74.07
2018-09-13T19:09:23.102Z,74.41
2018-09-13T19:11:51.532Z,74.85
2018-09-13T19:14:19.614Z,75.25
2018-09-13T19:16:48.266Z,75.75
2018-09-13T19:19:17.231Z,76.13
2018-09-13T19:21:44.738Z,75.32
2018-09-13T19:24:12.416Z,75.33
2018-09-13T19:26:40.327Z,75.34
2018-09-13T19:29:09.055Z,75.67
2018-09-13T19:31:37.220Z,75.86
2018-09-13T19:34:09.177Z,75.49
2018-09-13T19:36:36.727Z,75.87
2018-09-13T19:39:04.762Z,76.10
2018-09-13T19:41:33.528Z,75.71
2018-09-13T19:44:01.104Z,75.75
2018-09-13T19:46:30.560Z,76.04
2018-09-13T19:48:58.370Z,75.89
2018-09-13T19:51:25.909Z,76.31
2018-09-13T19:56:27.863Z,76.36
2018-09-13T19:58:56.282Z,75.93
2018-09-13T20:01:24.376Z,76.56
2018-09-13T20:03:52.261Z,76.41
2018-09-13T20:06:20.791Z,75.91
2018-09-13T20:08:48.591Z,76.73
2018-09-13T20:11:17.460Z,76.31
2018-09-13T20:13:46.652Z,76.07
2018-09-13T20:16:14.170Z,76.09
2018-09-13T20:18:42.148Z,76.29
2018-09-13T20:21:09.646Z,76.42
2018-09-13T20:23:37.176Z,76.19
2018-09-13T20:26:05.930Z,76.83
2018-09-13T20:28:33.475Z,76.69
2018-09-13T20:31:01.796Z,77.18
2018-09-13T20:33:29.808Z,76.97
2018-09-13T20:35:58.001Z,76.90
2018-09-13T20:38:26.256Z,76.95
2018-09-13T20:40:57.141Z,77.36
2018-09-13T20:43:25.648Z,77.11
2018-09-13T20:45:53.266Z,77.23
2018-09-13T20:48:22.253Z,76.80
2018-09-13T20:50:50.743Z,77.04
2018-09-13T20:53:18.846Z,76.82
2018-09-13T20:55:46.739Z,76.98
2018-09-13T20:58:14.240Z,77.10
2018-09-13T21:00:41.816Z,77.51
2018-09-13T21:03:09.716Z,77.61
2018-09-13T21:05:39.051Z,77.56
2018-09-13T21:08:06.575Z,77.49
2018-09-13T21:10:35.229Z,77.25
2018-09-13T21:13:03.755Z,76.92
2018-09-13T21:15:31.287Z,76.83
2018-09-13T21:18:02.294Z,77.69
2018-09-13T21:20:30.567Z,77.37
2018-09-13T21:22:59.591Z,77.53
2018-09-13T21:25:27.498Z,77.43
2018-09-13T21:27:55.099Z,76.86
2018-09-13T21:30:22.642Z,77.81
2018-09-13T21:32:50.728Z,77.86
2018-09-13T21:35:18.271Z,77.81
2018-09-13T21:37:45.863Z,77.61
2018-09-13T21:40:14.626Z,77.11
2018-09-13T21:42:43.315Z,77.45
2018-09-13T21:45:10.848Z,77.29
2018-09-13T21:47:39.422Z,77.53
2018-09-13T21:50:09.674Z,77.74
2018-09-13T21:52:37.820Z,77.34
2018-09-13T21:55:07.519Z,77.73
2018-09-13T21:57:35.043Z,77.44
2018-09-13T22:00:03.191Z,78.18
2018-09-13T22:02:31.715Z,77.94
2018-09-13T22:04:59.352Z,78.34
2018-09-13T22:07:26.889Z,77.90
2018-09-13T22:09:55.199Z,77.59
2018-09-13T22:12:22.825Z,77.31
2018-09-13T22:14:51.267Z,77.29
2018-09-13T22:17:18.879Z,77.12
2018-09-13T22:19:46.763Z,77.57
2018-09-13T22:22:14.267Z,76.90
2018-09-13T22:24:41.822Z,76.75
2018-09-13T22:27:09.799Z,76.51
2018-09-13T22:29:37.433Z,76.61
2018-09-13T22:32:05.844Z,76.36
2018-09-13T22:34:33.768Z,76.58
2018-09-13T22:37:01.629Z,75.84
2018-09-13T22:39:30.190Z,76.38
2018-09-13T22:41:59.683Z,76.79
2018-09-13T22:44:28.879Z,76.77
2018-09-13T22:46:56.443Z,76.77
2018-09-13T22:49:25.732Z,76.92
2018-09-13T22:51:53.594Z,77.41
2018-09-13T22:54:21.181Z,77.73
2018-09-13T22:56:48.690Z,77.77
2018-09-13T22:59:17.246Z,77.40
2018-09-13T23:01:45.575Z,77.70
2018-09-13T23:04:15.544Z,77.65
2018-09-13T23:06:43.060Z,78.43
2018-09-13T23:09:12.444Z,77.83
2018-09-13T23:11:40.273Z,77.67
2018-09-13T23:14:07.833Z,77.64
2018-09-13T23:16:35.797Z,77.88
2018-09-13T23:19:03.355Z,77.69
2018-09-13T23:21:30.827Z,77.78
2018-09-13T23:23:58.823Z,77.79
2018-09-13T23:26:26.425Z,77.59
2018-09-13T23:28:53.989Z,77.63
2018-09-13T23:31:21.604Z,77.03
2018-09-13T23:33:49.149Z,76.84
2018-09-13T23:36:16.714Z,76.65
2018-09-13T23:38:44.620Z,76.58
2018-09-13T23:41:12.172Z,76.80
2018-09-13T23:43:39.689Z,77.66
2018-09-13T23:46:07.245Z,77.58
2018-09-13T23:48:35.264Z,76.81
2018-09-13T23:51:03.951Z,77.05
2018-09-13T23:53:31.525Z,77.10
2018-09-13T23:55:59.044Z,76.84
2018-09-13T23:58:26.954Z,77.43
